sensor_id;sensor_type;location;lat;lon;timestamp;P1;durP1;ratioP1;P2;durP2;ratioP2
8319;SDS011;4197;42.130;24.746;2022-09-09T00:00:11;19.02;;;12.70;;
8319;SDS011;4197;42.130;24.746;2022-09-09T00:02:42;18.70;;;12.60;;
8319;SDS011;4197;42.130;24.746;2022-09-09T00:05:18;14.32;;;12.05;;
8319;SDS011;4197;42.130;24.746;2022-09-09T00:07:57;15.23;;;12.95;;
8319;SDS011;4197;42.130;24.746;2022-09-09T00:10:30;16.33;;;12.38;;
8319;SDS011;4197;42.130;24.746;2022-09-09T00:13:04;14.68;;;12.57;;
8319;SDS011;4197;42.130;24.746;2022-09-09T00:15:48;16.83;;;13.57;;
8319;SDS011;4197;42.130;24.746;2022-09-09T00:18:49;15.18;;;11.73;;
8319;SDS011;4197;42.130;24.746;2022-09-09T00:21:43;14.85;;;12.30;;
8319;SDS011;4197;42.130;24.746;2022-09-09T00:24:48;16.90;;;13.10;;
8319;SDS011;4197;42.130;24.746;2022-09-09T00:27:45;16.50;;;12.75;;
8319;SDS011;4197;42.130;24.746;2022-09-09T00:30:48;13.68;;;12.25;;
8319;SDS011;4197;42.130;24.746;2022-09-09T00:33:17;14.68;;;11.93;;
8319;SDS011;4197;42.130;24.746;2022-09-09T00:35:50;19.23;;;13.25;;
8319;SDS011;4197;42.130;24.746;2022-09-09T00:38:23;15.80;;;12.55;;
8319;SDS011;4197;42.130;24.746;2022-09-09T00:40:58;16.73;;;14.15;;
8319;SDS011;4197;42.130;24.746;2022-09-09T00:43:32;15.70;;;13.25;;
8319;SDS011;4197;42.130;24.746;2022-09-09T00:46:14;14.13;;;12.27;;
8319;SDS011;4197;42.130;24.746;2022-09-09T00:49:04;14.10;;;12.70;;
8319;SDS011;4197;42.130;24.746;2022-09-09T00:51:45;15.60;;;13.18;;
8319;SDS011;4197;42.130;24.746;2022-09-09T00:54:35;15.57;;;12.65;;
8319;SDS011;4197;42.130;24.746;2022-09-09T00:57:19;14.73;;;13.23;;
8319;SDS011;4197;42.130;24.746;2022-09-09T01:00:14;16.38;;;13.00;;
8319;SDS011;4197;42.130;24.746;2022-09-09T01:02:49;14.15;;;12.73;;
8319;SDS011;4197;42.130;24.746;2022-09-09T01:05:33;13.73;;;12.10;;
8319;SDS011;4197;42.130;24.746;2022-09-09T01:08:10;13.55;;;12.13;;
8319;SDS011;4197;42.130;24.746;2022-09-09T01:10:47;14.57;;;13.07;;
8319;SDS011;4197;42.130;24.746;2022-09-09T01:13:22;17.35;;;13.48;;
8319;SDS011;4197;42.130;24.746;2022-09-09T01:15:53;13.93;;;12.52;;
8319;SDS011;4197;42.130;24.746;2022-09-09T01:18:27;14.88;;;13.13;;
8319;SDS011;4197;42.130;24.746;2022-09-09T01:21:03;20.88;;;13.13;;
8319;SDS011;4197;42.130;24.746;2022-09-09T01:23:50;15.52;;;13.93;;
8319;SDS011;4197;42.130;24.746;2022-09-09T01:26:34;16.08;;;13.95;;
8319;SDS011;4197;42.130;24.746;2022-09-09T01:29:06;18.15;;;13.65;;
8319;SDS011;4197;42.130;24.746;2022-09-09T01:31:36;17.15;;;13.75;;
8319;SDS011;4197;42.130;24.746;2022-09-09T01:34:10;16.30;;;13.98;;
8319;SDS011;4197;42.130;24.746;2022-09-09T01:36:41;19.90;;;13.32;;
8319;SDS011;4197;42.130;24.746;2022-09-09T01:39:14;15.15;;;13.05;;
8319;SDS011;4197;42.130;24.746;2022-09-09T01:41:43;15.65;;;14.05;;
8319;SDS011;4197;42.130;24.746;2022-09-09T01:44:11;17.73;;;14.98;;
8319;SDS011;4197;42.130;24.746;2022-09-09T01:46:40;19.77;;;15.65;;
8319;SDS011;4197;42.130;24.746;2022-09-09T01:49:08;16.13;;;14.10;;
8319;SDS011;4197;42.130;24.746;2022-09-09T01:51:37;18.13;;;14.20;;
8319;SDS011;4197;42.130;24.746;2022-09-09T01:54:07;18.60;;;13.85;;
8319;SDS011;4197;42.130;24.746;2022-09-09T01:56:39;15.05;;;13.20;;
8319;SDS011;4197;42.130;24.746;2022-09-09T01:59:18;19.02;;;13.82;;
8319;SDS011;4197;42.130;24.746;2022-09-09T02:02:06;14.98;;;13.38;;
8319;SDS011;4197;42.130;24.746;2022-09-09T02:04:38;18.70;;;14.38;;
8319;SDS011;4197;42.130;24.746;2022-09-09T02:07:13;15.05;;;13.55;;
8319;SDS011;4197;42.130;24.746;2022-09-09T02:09:52;17.92;;;13.80;;
8319;SDS011;4197;42.130;24.746;2022-09-09T02:12:27;16.17;;;13.73;;
8319;SDS011;4197;42.130;24.746;2022-09-09T02:14:59;17.63;;;14.52;;
8319;SDS011;4197;42.130;24.746;2022-09-09T02:17:31;20.15;;;13.77;;
8319;SDS011;4197;42.130;24.746;2022-09-09T02:20:04;17.50;;;14.25;;
8319;SDS011;4197;42.130;24.746;2022-09-09T02:22:35;15.82;;;13.38;;
8319;SDS011;4197;42.130;24.746;2022-09-09T02:25:06;16.63;;;13.23;;
8319;SDS011;4197;42.130;24.746;2022-09-09T02:27:39;14.25;;;12.70;;
8319;SDS011;4197;42.130;24.746;2022-09-09T02:30:09;14.57;;;13.02;;
8319;SDS011;4197;42.130;24.746;2022-09-09T02:32:39;17.13;;;13.30;;
8319;SDS011;4197;42.130;24.746;2022-09-09T02:35:10;21.73;;;13.40;;
8319;SDS011;4197;42.130;24.746;2022-09-09T02:37:41;15.10;;;12.68;;
8319;SDS011;4197;42.130;24.746;2022-09-09T02:40:12;17.60;;;12.57;;
8319;SDS011;4197;42.130;24.746;2022-09-09T02:42:43;15.27;;;13.68;;
8319;SDS011;4197;42.130;24.746;2022-09-09T02:45:14;17.85;;;12.93;;
8319;SDS011;4197;42.130;24.746;2022-09-09T02:47:47;13.57;;;12.38;;
8319;SDS011;4197;42.130;24.746;2022-09-09T02:50:22;14.13;;;12.35;;
8319;SDS011;4197;42.130;24.746;2022-09-09T02:53:00;14.50;;;12.93;;
8319;SDS011;4197;42.130;24.746;2022-09-09T02:55:39;14.75;;;11.75;;
8319;SDS011;4197;42.130;24.746;2022-09-09T02:58:15;14.07;;;11.75;;
8319;SDS011;4197;42.130;24.746;2022-09-09T03:00:45;13.25;;;11.85;;
8319;SDS011;4197;42.130;24.746;2022-09-09T03:03:15;16.52;;;12.95;;
8319;SDS011;4197;42.130;24.746;2022-09-09T03:05:45;18.42;;;12.52;;
8319;SDS011;4197;42.130;24.746;2022-09-09T03:08:14;15.43;;;12.15;;
8319;SDS011;4197;42.130;24.746;2022-09-09T03:10:42;13.95;;;12.52;;
8319;SDS011;4197;42.130;24.746;2022-09-09T03:13:11;17.07;;;12.33;;
8319;SDS011;4197;42.130;24.746;2022-09-09T03:15:43;15.07;;;12.73;;
8319;SDS011;4197;42.130;24.746;2022-09-09T03:18:12;14.63;;;12.48;;
8319;SDS011;4197;42.130;24.746;2022-09-09T03:20:40;15.50;;;13.30;;
8319;SDS011;4197;42.130;24.746;2022-09-09T03:23:09;17.35;;;13.50;;
8319;SDS011;4197;42.130;24.746;2022-09-09T03:25:46;17.23;;;13.25;;
8319;SDS011;4197;42.130;24.746;2022-09-09T03:28:14;15.73;;;12.85;;
8319;SDS011;4197;42.130;24.746;2022-09-09T03:30:44;17.73;;;13.15;;
8319;SDS011;4197;42.130;24.746;2022-09-09T03:33:12;20.17;;;13.30;;
8319;SDS011;4197;42.130;24.746;2022-09-09T03:35:44;18.52;;;14.00;;
8319;SDS011;4197;42.130;24.746;2022-09-09T03:38:15;17.40;;;13.23;;
8319;SDS011;4197;42.130;24.746;2022-09-09T03:40:48;17.67;;;13.10;;
8319;SDS011;4197;42.130;24.746;2022-09-09T03:43:17;16.00;;;14.40;;
8319;SDS011;4197;42.130;24.746;2022-09-09T03:45:47;16.33;;;13.50;;
8319;SDS011;4197;42.130;24.746;2022-09-09T03:48:17;18.60;;;14.15;;
8319;SDS011;4197;42.130;24.746;2022-09-09T03:50:46;19.65;;;14.13;;
8319;SDS011;4197;42.130;24.746;2022-09-09T03:53:14;16.95;;;13.05;;
8319;SDS011;4197;42.130;24.746;2022-09-09T03:55:44;19.37;;;13.80;;
8319;SDS011;4197;42.130;24.746;2022-09-09T03:58:13;14.70;;;12.50;;
8319;SDS011;4197;42.130;24.746;2022-09-09T04:00:41;18.33;;;13.27;;
8319;SDS011;4197;42.130;24.746;2022-09-09T04:03:12;19.63;;;14.23;;
8319;SDS011;4197;42.130;24.746;2022-09-09T04:05:42;15.38;;;13.77;;
8319;SDS011;4197;42.130;24.746;2022-09-09T04:08:10;19.97;;;14.03;;
8319;SDS011;4197;42.130;24.746;2022-09-09T04:10:38;18.23;;;14.40;;
8319;SDS011;4197;42.130;24.746;2022-09-09T04:13:06;15.75;;;14.02;;
8319;SDS011;4197;42.130;24.746;2022-09-09T04:15:34;18.87;;;13.23;;
8319;SDS011;4197;42.130;24.746;2022-09-09T04:18:03;17.33;;;14.10;;
8319;SDS011;4197;42.130;24.746;2022-09-09T04:20:33;21.65;;;14.63;;
8319;SDS011;4197;42.130;24.746;2022-09-09T04:23:01;20.73;;;14.25;;
8319;SDS011;4197;42.130;24.746;2022-09-09T04:25:29;21.13;;;15.50;;
8319;SDS011;4197;42.130;24.746;2022-09-09T04:27:58;23.10;;;14.45;;
8319;SDS011;4197;42.130;24.746;2022-09-09T04:30:26;20.60;;;14.50;;
8319;SDS011;4197;42.130;24.746;2022-09-09T04:32:54;23.88;;;15.05;;
8319;SDS011;4197;42.130;24.746;2022-09-09T04:35:24;18.35;;;15.50;;
8319;SDS011;4197;42.130;24.746;2022-09-09T04:37:55;21.17;;;14.77;;
8319;SDS011;4197;42.130;24.746;2022-09-09T04:40:23;23.55;;;15.48;;
8319;SDS011;4197;42.130;24.746;2022-09-09T04:42:51;19.48;;;14.85;;
8319;SDS011;4197;42.130;24.746;2022-09-09T04:45:19;23.35;;;14.65;;
8319;SDS011;4197;42.130;24.746;2022-09-09T04:47:47;15.80;;;14.20;;
8319;SDS011;4197;42.130;24.746;2022-09-09T04:50:15;16.70;;;13.52;;
8319;SDS011;4197;42.130;24.746;2022-09-09T04:52:43;22.42;;;14.13;;
8319;SDS011;4197;42.130;24.746;2022-09-09T04:55:14;16.95;;;14.10;;
8319;SDS011;4197;42.130;24.746;2022-09-09T04:57:42;20.25;;;13.70;;
8319;SDS011;4197;42.130;24.746;2022-09-09T05:00:10;19.08;;;13.65;;
8319;SDS011;4197;42.130;24.746;2022-09-09T05:02:39;14.60;;;12.85;;
8319;SDS011;4197;42.130;24.746;2022-09-09T05:05:08;21.42;;;13.73;;
8319;SDS011;4197;42.130;24.746;2022-09-09T05:07:37;17.98;;;12.48;;
8319;SDS011;4197;42.130;24.746;2022-09-09T05:10:05;17.05;;;13.55;;
8319;SDS011;4197;42.130;24.746;2022-09-09T05:12:35;19.58;;;12.73;;
8319;SDS011;4197;42.130;24.746;2022-09-09T05:15:04;17.90;;;12.70;;
8319;SDS011;4197;42.130;24.746;2022-09-09T05:17:33;15.50;;;11.20;;
8319;SDS011;4197;42.130;24.746;2022-09-09T05:20:01;20.30;;;12.70;;
8319;SDS011;4197;42.130;24.746;2022-09-09T05:22:36;19.10;;;12.98;;
8319;SDS011;4197;42.130;24.746;2022-09-09T05:25:04;18.55;;;12.73;;
8319;SDS011;4197;42.130;24.746;2022-09-09T05:27:33;20.92;;;13.15;;
8319;SDS011;4197;42.130;24.746;2022-09-09T05:30:03;17.83;;;11.65;;
8319;SDS011;4197;42.130;24.746;2022-09-09T05:32:32;15.02;;;11.45;;
8319;SDS011;4197;42.130;24.746;2022-09-09T05:35:00;16.80;;;11.50;;
8319;SDS011;4197;42.130;24.746;2022-09-09T05:37:29;15.57;;;10.15;;
8319;SDS011;4197;42.130;24.746;2022-09-09T05:39:58;11.73;;;10.23;;
8319;SDS011;4197;42.130;24.746;2022-09-09T05:42:29;12.55;;;10.23;;
8319;SDS011;4197;42.130;24.746;2022-09-09T05:44:58;14.38;;;10.50;;
8319;SDS011;4197;42.130;24.746;2022-09-09T05:47:28;15.25;;;11.00;;
8319;SDS011;4197;42.130;24.746;2022-09-09T05:49:56;12.93;;;10.57;;
8319;SDS011;4197;42.130;24.746;2022-09-09T05:52:24;17.33;;;9.43;;
8319;SDS011;4197;42.130;24.746;2022-09-09T05:54:53;20.17;;;10.52;;
8319;SDS011;4197;42.130;24.746;2022-09-09T05:57:23;15.10;;;10.55;;
8319;SDS011;4197;42.130;24.746;2022-09-09T05:59:51;13.73;;;10.88;;
8319;SDS011;4197;42.130;24.746;2022-09-09T06:02:20;11.60;;;10.05;;
8319;SDS011;4197;42.130;24.746;2022-09-09T06:04:49;11.00;;;9.07;;
8319;SDS011;4197;42.130;24.746;2022-09-09T06:07:17;12.80;;;8.98;;
8319;SDS011;4197;42.130;24.746;2022-09-09T06:09:46;12.15;;;9.05;;
8319;SDS011;4197;42.130;24.746;2022-09-09T06:12:14;14.52;;;8.60;;
8319;SDS011;4197;42.130;24.746;2022-09-09T06:14:42;15.43;;;8.90;;
8319;SDS011;4197;42.130;24.746;2022-09-09T06:17:11;13.75;;;9.15;;
8319;SDS011;4197;42.130;24.746;2022-09-09T06:19:39;14.70;;;7.95;;
8319;SDS011;4197;42.130;24.746;2022-09-09T06:22:09;10.27;;;8.65;;
8319;SDS011;4197;42.130;24.746;2022-09-09T06:24:38;11.30;;;8.90;;
8319;SDS011;4197;42.130;24.746;2022-09-09T06:27:06;13.25;;;8.02;;
8319;SDS011;4197;42.130;24.746;2022-09-09T06:29:34;17.02;;;8.70;;
8319;SDS011;4197;42.130;24.746;2022-09-09T06:32:02;15.75;;;9.77;;
8319;SDS011;4197;42.130;24.746;2022-09-09T06:34:30;13.13;;;8.65;;
8319;SDS011;4197;42.130;24.746;2022-09-09T06:36:58;12.60;;;8.30;;
8319;SDS011;4197;42.130;24.746;2022-09-09T06:39:28;12.82;;;8.35;;
8319;SDS011;4197;42.130;24.746;2022-09-09T06:41:57;17.88;;;8.20;;
8319;SDS011;4197;42.130;24.746;2022-09-09T06:44:26;15.82;;;8.77;;
8319;SDS011;4197;42.130;24.746;2022-09-09T06:47:00;9.23;;;7.72;;
8319;SDS011;4197;42.130;24.746;2022-09-09T06:49:28;11.35;;;7.60;;
8319;SDS011;4197;42.130;24.746;2022-09-09T06:51:56;11.68;;;7.82;;
8319;SDS011;4197;42.130;24.746;2022-09-09T06:54:24;16.20;;;7.82;;
8319;SDS011;4197;42.130;24.746;2022-09-09T06:56:54;17.38;;;7.50;;
8319;SDS011;4197;42.130;24.746;2022-09-09T06:59:22;12.95;;;7.88;;
8319;SDS011;4197;42.130;24.746;2022-09-09T07:01:50;14.55;;;8.15;;
8319;SDS011;4197;42.130;24.746;2022-09-09T07:04:21;14.63;;;7.28;;
8319;SDS011;4197;42.130;24.746;2022-09-09T07:06:50;10.05;;;7.35;;
8319;SDS011;4197;42.130;24.746;2022-09-09T07:09:19;17.85;;;7.47;;
8319;SDS011;4197;42.130;24.746;2022-09-09T07:11:48;11.23;;;8.20;;
8319;SDS011;4197;42.130;24.746;2022-09-09T07:14:20;11.27;;;8.50;;
8319;SDS011;4197;42.130;24.746;2022-09-09T07:16:49;12.73;;;7.38;;
8319;SDS011;4197;42.130;24.746;2022-09-09T07:19:19;12.30;;;8.40;;
8319;SDS011;4197;42.130;24.746;2022-09-09T07:21:47;9.13;;;7.88;;
8319;SDS011;4197;42.130;24.746;2022-09-09T07:24:16;14.45;;;8.25;;
8319;SDS011;4197;42.130;24.746;2022-09-09T07:26:44;10.27;;;8.00;;
8319;SDS011;4197;42.130;24.746;2022-09-09T07:29:12;12.05;;;8.43;;
8319;SDS011;4197;42.130;24.746;2022-09-09T07:31:47;14.40;;;7.82;;
8319;SDS011;4197;42.130;24.746;2022-09-09T07:34:15;15.00;;;7.70;;
8319;SDS011;4197;42.130;24.746;2022-09-09T07:36:44;9.95;;;7.88;;
8319;SDS011;4197;42.130;24.746;2022-09-09T07:39:13;10.57;;;7.35;;
8319;SDS011;4197;42.130;24.746;2022-09-09T07:41:45;8.68;;;7.35;;
8319;SDS011;4197;42.130;24.746;2022-09-09T07:44:14;14.93;;;7.85;;
8319;SDS011;4197;42.130;24.746;2022-09-09T07:46:44;14.68;;;7.85;;
8319;SDS011;4197;42.130;24.746;2022-09-09T07:49:15;10.45;;;7.03;;
8319;SDS011;4197;42.130;24.746;2022-09-09T07:51:52;16.88;;;7.47;;
8319;SDS011;4197;42.130;24.746;2022-09-09T07:54:21;10.63;;;6.65;;
8319;SDS011;4197;42.130;24.746;2022-09-09T07:56:50;9.13;;;7.30;;
8319;SDS011;4197;42.130;24.746;2022-09-09T07:59:19;11.55;;;6.70;;
8319;SDS011;4197;42.130;24.746;2022-09-09T08:01:47;11.55;;;6.38;;
8319;SDS011;4197;42.130;24.746;2022-09-09T08:04:23;9.35;;;6.75;;
8319;SDS011;4197;42.130;24.746;2022-09-09T08:06:53;11.40;;;6.88;;
8319;SDS011;4197;42.130;24.746;2022-09-09T08:09:23;10.25;;;6.00;;
8319;SDS011;4197;42.130;24.746;2022-09-09T08:11:55;21.40;;;6.70;;
8319;SDS011;4197;42.130;24.746;2022-09-09T08:14:24;10.10;;;6.22;;
8319;SDS011;4197;42.130;24.746;2022-09-09T08:16:52;7.70;;;5.53;;
8319;SDS011;4197;42.130;24.746;2022-09-09T08:19:25;5.75;;;5.03;;
8319;SDS011;4197;42.130;24.746;2022-09-09T08:21:55;8.45;;;6.18;;
8319;SDS011;4197;42.130;24.746;2022-09-09T08:24:23;15.60;;;6.60;;
8319;SDS011;4197;42.130;24.746;2022-09-09T08:26:51;8.60;;;6.10;;
8319;SDS011;4197;42.130;24.746;2022-09-09T08:29:19;14.05;;;6.63;;
8319;SDS011;4197;42.130;24.746;2022-09-09T08:31:48;11.80;;;5.93;;
8319;SDS011;4197;42.130;24.746;2022-09-09T08:34:19;11.88;;;5.95;;
8319;SDS011;4197;42.130;24.746;2022-09-09T08:36:49;9.60;;;5.63;;
8319;SDS011;4197;42.130;24.746;2022-09-09T08:39:18;8.20;;;5.55;;
8319;SDS011;4197;42.130;24.746;2022-09-09T08:42:06;13.65;;;5.93;;
8319;SDS011;4197;42.130;24.746;2022-09-09T08:44:48;11.43;;;5.97;;
8319;SDS011;4197;42.130;24.746;2022-09-09T08:47:39;7.38;;;6.00;;
8319;SDS011;4197;42.130;24.746;2022-09-09T08:50:19;11.07;;;5.95;;
8319;SDS011;4197;42.130;24.746;2022-09-09T08:52:57;12.32;;;6.15;;
8319;SDS011;4197;42.130;24.746;2022-09-09T08:55:35;9.45;;;5.95;;
8319;SDS011;4197;42.130;24.746;2022-09-09T08:58:12;10.68;;;6.38;;
8319;SDS011;4197;42.130;24.746;2022-09-09T09:00:49;8.73;;;5.72;;
8319;SDS011;4197;42.130;24.746;2022-09-09T09:03:28;7.50;;;6.07;;
8319;SDS011;4197;42.130;24.746;2022-09-09T09:06:04;14.20;;;6.38;;
8319;SDS011;4197;42.130;24.746;2022-09-09T09:08:43;7.35;;;5.95;;
8319;SDS011;4197;42.130;24.746;2022-09-09T09:11:19;10.15;;;6.53;;
8319;SDS011;4197;42.130;24.746;2022-09-09T09:13:50;9.30;;;6.00;;
8319;SDS011;4197;42.130;24.746;2022-09-09T09:16:23;11.25;;;6.50;;
8319;SDS011;4197;42.130;24.746;2022-09-09T09:18:58;12.55;;;6.82;;
8319;SDS011;4197;42.130;24.746;2022-09-09T09:21:29;12.52;;;6.80;;
8319;SDS011;4197;42.130;24.746;2022-09-09T09:24:06;11.27;;;6.50;;
8319;SDS011;4197;42.130;24.746;2022-09-09T09:26:47;11.82;;;7.10;;
8319;SDS011;4197;42.130;24.746;2022-09-09T09:29:16;11.98;;;7.22;;
8319;SDS011;4197;42.130;24.746;2022-09-09T09:31:48;11.05;;;6.47;;
8319;SDS011;4197;42.130;24.746;2022-09-09T09:34:21;9.82;;;6.75;;
8319;SDS011;4197;42.130;24.746;2022-09-09T09:36:52;16.85;;;7.38;;
8319;SDS011;4197;42.130;24.746;2022-09-09T09:39:23;10.27;;;7.15;;
8319;SDS011;4197;42.130;24.746;2022-09-09T09:42:15;10.60;;;6.72;;
8319;SDS011;4197;42.130;24.746;2022-09-09T09:44:48;10.25;;;6.40;;
8319;SDS011;4197;42.130;24.746;2022-09-09T09:47:17;8.85;;;7.32;;
8319;SDS011;4197;42.130;24.746;2022-09-09T09:49:52;12.30;;;6.80;;
8319;SDS011;4197;42.130;24.746;2022-09-09T09:52:22;8.63;;;6.53;;
8319;SDS011;4197;42.130;24.746;2022-09-09T09:54:53;9.45;;;7.18;;
8319;SDS011;4197;42.130;24.746;2022-09-09T09:57:24;9.05;;;7.35;;
8319;SDS011;4197;42.130;24.746;2022-09-09T10:00:03;11.00;;;6.78;;
8319;SDS011;4197;42.130;24.746;2022-09-09T10:02:38;9.35;;;6.57;;
8319;SDS011;4197;42.130;24.746;2022-09-09T10:05:13;11.98;;;7.65;;
8319;SDS011;4197;42.130;24.746;2022-09-09T10:07:59;13.40;;;7.38;;
8319;SDS011;4197;42.130;24.746;2022-09-09T10:10:34;8.20;;;7.30;;
8319;SDS011;4197;42.130;24.746;2022-09-09T10:13:15;15.40;;;7.95;;
8319;SDS011;4197;42.130;24.746;2022-09-09T10:15:59;12.10;;;7.43;;
8319;SDS011;4197;42.130;24.746;2022-09-09T10:18:42;12.55;;;8.07;;
8319;SDS011;4197;42.130;24.746;2022-09-09T10:21:22;9.73;;;7.25;;
8319;SDS011;4197;42.130;24.746;2022-09-09T10:24:12;11.00;;;7.28;;
8319;SDS011;4197;42.130;24.746;2022-09-09T10:26:56;7.85;;;7.05;;
8319;SDS011;4197;42.130;24.746;2022-09-09T10:29:32;13.55;;;7.53;;
8319;SDS011;4197;42.130;24.746;2022-09-09T10:32:19;11.45;;;7.90;;
8319;SDS011;4197;42.130;24.746;2022-09-09T10:35:02;10.40;;;7.43;;
8319;SDS011;4197;42.130;24.746;2022-09-09T10:37:41;13.90;;;7.78;;
8319;SDS011;4197;42.130;24.746;2022-09-09T10:40:27;15.00;;;7.43;;
8319;SDS011;4197;42.130;24.746;2022-09-09T10:43:12;8.85;;;7.43;;
8319;SDS011;4197;42.130;24.746;2022-09-09T10:45:51;9.75;;;6.88;;
8319;SDS011;4197;42.130;24.746;2022-09-09T10:48:30;14.18;;;7.63;;
8319;SDS011;4197;42.130;24.746;2022-09-09T10:51:17;9.15;;;7.00;;
8319;SDS011;4197;42.130;24.746;2022-09-09T10:53:52;7.75;;;7.03;;
8319;SDS011;4197;42.130;24.746;2022-09-09T10:56:33;9.65;;;8.30;;
8319;SDS011;4197;42.130;24.746;2022-09-09T10:59:04;11.48;;;6.97;;
8319;SDS011;4197;42.130;24.746;2022-09-09T11:01:40;11.93;;;7.38;;
8319;SDS011;4197;42.130;24.746;2022-09-09T11:04:13;12.68;;;7.82;;
8319;SDS011;4197;42.130;24.746;2022-09-09T11:06:45;9.07;;;7.22;;
8319;SDS011;4197;42.130;24.746;2022-09-09T11:09:18;10.27;;;6.30;;
8319;SDS011;4197;42.130;24.746;2022-09-09T11:11:51;15.15;;;6.88;;
8319;SDS011;4197;42.130;24.746;2022-09-09T11:14:26;7.75;;;6.97;;
8319;SDS011;4197;42.130;24.746;2022-09-09T11:17:03;11.82;;;7.05;;
8319;SDS011;4197;42.130;24.746;2022-09-09T11:19:37;8.52;;;6.70;;
8319;SDS011;4197;42.130;24.746;2022-09-09T11:22:07;7.97;;;7.18;;
8319;SDS011;4197;42.130;24.746;2022-09-09T11:24:45;9.45;;;6.95;;
8319;SDS011;4197;42.130;24.746;2022-09-09T11:27:18;8.07;;;7.15;;
8319;SDS011;4197;42.130;24.746;2022-09-09T11:33:22;13.07;;;6.93;;
8319;SDS011;4197;42.130;24.746;2022-09-09T11:36:08;7.28;;;6.45;;
8319;SDS011;4197;42.130;24.746;2022-09-09T11:38:59;9.35;;;7.10;;
8319;SDS011;4197;42.130;24.746;2022-09-09T11:41:37;8.20;;;6.43;;
8319;SDS011;4197;42.130;24.746;2022-09-09T11:44:09;10.43;;;6.88;;
8319;SDS011;4197;42.130;24.746;2022-09-09T11:46:41;9.95;;;6.13;;
8319;SDS011;4197;42.130;24.746;2022-09-09T11:49:22;7.47;;;5.78;;
8319;SDS011;4197;42.130;24.746;2022-09-09T11:51:55;9.07;;;5.80;;
8319;SDS011;4197;42.130;24.746;2022-09-09T11:54:30;7.15;;;5.30;;
8319;SDS011;4197;42.130;24.746;2022-09-09T11:57:01;11.80;;;5.75;;
8319;SDS011;4197;42.130;24.746;2022-09-09T11:59:31;7.93;;;5.50;;
8319;SDS011;4197;42.130;24.746;2022-09-09T12:02:02;9.07;;;5.68;;
8319;SDS011;4197;42.130;24.746;2022-09-09T12:04:35;8.10;;;5.97;;
8319;SDS011;4197;42.130;24.746;2022-09-09T12:07:21;7.75;;;5.90;;
8319;SDS011;4197;42.130;24.746;2022-09-09T12:09:58;7.30;;;5.15;;
8319;SDS011;4197;42.130;24.746;2022-09-09T12:12:31;6.97;;;5.40;;
8319;SDS011;4197;42.130;24.746;2022-09-09T12:15:19;9.13;;;6.03;;
8319;SDS011;4197;42.130;24.746;2022-09-09T12:17:53;6.03;;;5.43;;
8319;SDS011;4197;42.130;24.746;2022-09-09T12:20:31;11.60;;;5.70;;
8319;SDS011;4197;42.130;24.746;2022-09-09T12:25:55;8.57;;;5.90;;
8319;SDS011;4197;42.130;24.746;2022-09-09T12:28:41;10.80;;;6.63;;
8319;SDS011;4197;42.130;24.746;2022-09-09T12:31:21;10.23;;;6.10;;
8319;SDS011;4197;42.130;24.746;2022-09-09T12:34:02;47.95;;;8.75;;
8319;SDS011;4197;42.130;24.746;2022-09-09T12:36:37;13.80;;;5.95;;
8319;SDS011;4197;42.130;24.746;2022-09-09T12:39:10;10.55;;;5.55;;
8319;SDS011;4197;42.130;24.746;2022-09-09T12:41:50;10.10;;;5.80;;
8319;SDS011;4197;42.130;24.746;2022-09-09T12:44:23;7.70;;;5.07;;
8319;SDS011;4197;42.130;24.746;2022-09-09T12:46:54;7.90;;;5.45;;
8319;SDS011;4197;42.130;24.746;2022-09-09T12:49:31;8.05;;;5.82;;
8319;SDS011;4197;42.130;24.746;2022-09-09T12:52:03;8.00;;;5.30;;
8319;SDS011;4197;42.130;24.746;2022-09-09T12:54:36;7.82;;;5.78;;
8319;SDS011;4197;42.130;24.746;2022-09-09T12:57:05;8.95;;;5.75;;
8319;SDS011;4197;42.130;24.746;2022-09-09T12:59:39;10.07;;;5.55;;
8319;SDS011;4197;42.130;24.746;2022-09-09T13:02:14;7.07;;;5.50;;
8319;SDS011;4197;42.130;24.746;2022-09-09T13:04:47;7.05;;;5.75;;
8319;SDS011;4197;42.130;24.746;2022-09-09T13:07:17;8.45;;;5.60;;
8319;SDS011;4197;42.130;24.746;2022-09-09T13:09:46;8.02;;;5.13;;
8319;SDS011;4197;42.130;24.746;2022-09-09T13:12:16;10.55;;;5.72;;
8319;SDS011;4197;42.130;24.746;2022-09-09T13:14:47;9.50;;;5.63;;
8319;SDS011;4197;42.130;24.746;2022-09-09T13:17:19;9.27;;;5.63;;
8319;SDS011;4197;42.130;24.746;2022-09-09T13:19:50;6.57;;;5.97;;
8319;SDS011;4197;42.130;24.746;2022-09-09T13:22:23;14.27;;;6.07;;
8319;SDS011;4197;42.130;24.746;2022-09-09T13:24:59;7.63;;;5.43;;
8319;SDS011;4197;42.130;24.746;2022-09-09T13:27:30;9.18;;;6.05;;
8319;SDS011;4197;42.130;24.746;2022-09-09T13:30:00;10.07;;;6.32;;
8319;SDS011;4197;42.130;24.746;2022-09-09T13:32:29;11.13;;;6.28;;
8319;SDS011;4197;42.130;24.746;2022-09-09T13:35:00;11.63;;;5.78;;
8319;SDS011;4197;42.130;24.746;2022-09-09T13:37:30;7.35;;;5.55;;
8319;SDS011;4197;42.130;24.746;2022-09-09T13:40:02;9.90;;;5.72;;
8319;SDS011;4197;42.130;24.746;2022-09-09T13:42:32;9.07;;;5.60;;
8319;SDS011;4197;42.130;24.746;2022-09-09T13:45:14;13.10;;;6.70;;
8319;SDS011;4197;42.130;24.746;2022-09-09T13:47:46;12.57;;;6.38;;
8319;SDS011;4197;42.130;24.746;2022-09-09T13:50:20;13.23;;;6.55;;
8319;SDS011;4197;42.130;24.746;2022-09-09T13:52:50;9.13;;;6.35;;
8319;SDS011;4197;42.130;24.746;2022-09-09T13:55:20;7.00;;;6.25;;
8319;SDS011;4197;42.130;24.746;2022-09-09T13:57:50;8.45;;;6.15;;
8319;SDS011;4197;42.130;24.746;2022-09-09T14:00:19;12.48;;;6.65;;
8319;SDS011;4197;42.130;24.746;2022-09-09T14:02:48;10.85;;;6.15;;
8319;SDS011;4197;42.130;24.746;2022-09-09T14:05:16;8.93;;;6.25;;
8319;SDS011;4197;42.130;24.746;2022-09-09T14:07:46;8.55;;;6.43;;
8319;SDS011;4197;42.130;24.746;2022-09-09T14:10:18;6.65;;;5.95;;
8319;SDS011;4197;42.130;24.746;2022-09-09T14:12:47;10.77;;;6.72;;
8319;SDS011;4197;42.130;24.746;2022-09-09T14:15:15;10.95;;;6.70;;
8319;SDS011;4197;42.130;24.746;2022-09-09T14:17:44;11.95;;;7.00;;
8319;SDS011;4197;42.130;24.746;2022-09-09T14:20:12;12.70;;;7.50;;
8319;SDS011;4197;42.130;24.746;2022-09-09T14:22:41;8.20;;;6.97;;
8319;SDS011;4197;42.130;24.746;2022-09-09T14:25:12;13.18;;;7.68;;
8319;SDS011;4197;42.130;24.746;2022-09-09T14:27:41;11.40;;;7.85;;
8319;SDS011;4197;42.130;24.746;2022-09-09T14:30:10;10.70;;;7.78;;
8319;SDS011;4197;42.130;24.746;2022-09-09T14:32:39;8.13;;;7.25;;
8319;SDS011;4197;42.130;24.746;2022-09-09T14:35:07;12.75;;;7.30;;
8319;SDS011;4197;42.130;24.746;2022-09-09T14:37:36;13.25;;;7.38;;
8319;SDS011;4197;42.130;24.746;2022-09-09T14:40:06;7.82;;;6.78;;
8319;SDS011;4197;42.130;24.746;2022-09-09T14:42:36;13.98;;;8.07;;
8319;SDS011;4197;42.130;24.746;2022-09-09T14:45:05;12.38;;;7.57;;
8319;SDS011;4197;42.130;24.746;2022-09-09T14:47:34;9.52;;;7.10;;
8319;SDS011;4197;42.130;24.746;2022-09-09T14:50:02;11.20;;;7.20;;
8319;SDS011;4197;42.130;24.746;2022-09-09T14:52:31;11.40;;;7.45;;
8319;SDS011;4197;42.130;24.746;2022-09-09T14:54:59;12.40;;;7.40;;
8319;SDS011;4197;42.130;24.746;2022-09-09T14:57:27;16.30;;;8.05;;
8319;SDS011;4197;42.130;24.746;2022-09-09T14:59:57;12.25;;;7.63;;
8319;SDS011;4197;42.130;24.746;2022-09-09T15:02:25;14.18;;;8.13;;
8319;SDS011;4197;42.130;24.746;2022-09-09T15:04:53;7.93;;;6.65;;
8319;SDS011;4197;42.130;24.746;2022-09-09T15:07:24;12.32;;;7.53;;
8319;SDS011;4197;42.130;24.746;2022-09-09T15:09:52;12.75;;;8.10;;
8319;SDS011;4197;42.130;24.746;2022-09-09T15:12:21;12.23;;;7.88;;
8319;SDS011;4197;42.130;24.746;2022-09-09T15:14:49;10.73;;;7.45;;
8319;SDS011;4197;42.130;24.746;2022-09-09T15:17:19;12.35;;;7.65;;
8319;SDS011;4197;42.130;24.746;2022-09-09T15:19:47;10.60;;;7.90;;
8319;SDS011;4197;42.130;24.746;2022-09-09T15:22:16;11.23;;;8.10;;
8319;SDS011;4197;42.130;24.746;2022-09-09T15:24:45;12.48;;;7.68;;